Ana Sayfa
METAR-TAF:

METAR-TAF

Havaalanları :

Waterville Robert LaFleur Airport

Waterville, Maine, Amerika Birleşik Devletleri

Enlem: 44-32N, Boylam: 069-41W, yükseklik: 101 m

Güncel hava durumu gözlemi

Rapor saat 09:10 UTC de 19 dakika önce yapıldı.
Rüzgar güney/güneybatıdan 3 kt
Sıcaklık 4°C
Nem 100%
Basınç 1025 hPa
Görüş mesafesi: 14.5 km
400 ft yükseklikte çok bulutlu

METAR: KWVL 250910Z AUTO 21003KT 9SM OVC004 04/04 A3027 RMK AO2

Saat: 05:29 (09:29 UTC)


TAF: eksik

4.000'den fazla havaalanı için hava durumu gözlemleri ve tahminleri (METAR ve TAF raporları).

Kullanılabilir istasyonlar harita üzerinde sarı ve kırmızı noktalarla gösterilir.

İstasyonun adını görmek için fareyi noktanın üzerinde gezdirin.

Sonrasında hava gözlem ve tahminlerini görmek için tıklayın.

Haritayı değiştirmek için: yaklaştırmak için siyah artı işaretli yeşil düğmeye ve uzaklaştırmak için de eksi işaretli düğmeye hızla tıklayın; bitişik haritalar için yeşil okları kullanın.


METAR-TAF: